Time;durP1;ratioP1;P1;durP2;ratioP2;P2;SDS_P1;SDS_P2;PMS_P1;PMS_P2;Temp;Humidity;BMP_temperature;BMP_pressure;BME280_temperature;BME280_humidity;BME280_pressure;Samples;Min_cycle;Max_cycle;Signal;HPM_P1;HPM_P2
2022/07/20 00:01:18;;;;;;;11.15;7.53;;;;;;;21.05;68.74;101261.72;5056657;28;20057;-79
2022/07/20 00:03:45;;;;;;;11.93;7.85;;;;;;;21.01;70.35;101260.53;5059414;28;20056;-80
2022/07/20 00:06:13;;;;;;;16.42;8.10;;;;;;;20.97;69.45;101266.19;5061436;28;20049;-80
2022/07/20 00:11:25;;;;;;;15.20;7.97;;;;;;;20.89;68.13;101274.09;5061138;28;20064;-80
2022/07/20 00:14:00;;;;;;;14.23;7.82;;;;;;;20.87;68.61;101268.44;5060580;28;20049;-80
2022/07/20 00:16:29;;;;;;;9.65;8.23;;;;;;;20.84;68.02;101274.13;5061295;28;20049;-79
2022/07/20 00:18:56;;;;;;;21.77;9.05;;;;;;;20.78;68.29;101266.03;5060648;28;20470;-80
2022/07/20 00:21:22;;;;;;;15.25;8.07;;;;;;;20.77;68.68;101269.25;5060219;28;20052;-80
2022/07/20 00:23:50;;;;;;;19.08;8.65;;;;;;;20.73;69.30;101264.09;5059943;28;20471;-80
2022/07/20 00:26:16;;;;;;;11.57;8.32;;;;;;;20.63;70.14;101268.31;5060470;28;20943;-81
2022/07/20 00:28:43;;;;;;;8.35;7.60;;;;;;;20.57;69.80;101264.88;5060456;28;20076;-81
2022/07/20 00:31:09;;;;;;;13.88;8.30;;;;;;;20.56;69.44;101261.44;5043799;28;20064;-81
2022/07/20 00:33:36;;;;;;;9.07;7.90;;;;;;;20.55;69.93;101261.94;5059887;28;20049;-81
2022/07/20 00:36:03;;;;;;;11.40;8.10;;;;;;;20.50;70.42;101257.25;5060198;28;20041;-81
2022/07/20 00:38:30;;;;;;;10.13;8.05;;;;;;;20.42;70.06;101265.16;5060038;28;20041;-82
2022/07/20 00:40:56;;;;;;;14.80;8.07;;;;;;;20.39;69.56;101268.13;5059957;28;20545;-83
2022/07/20 00:43:23;;;;;;;14.13;8.48;;;;;;;20.39;69.77;101268.13;5060230;28;20061;-80
2022/07/20 00:45:49;;;;;;;12.05;8.48;;;;;;;20.33;69.53;101264.66;5060142;28;20050;-80
2022/07/20 00:48:16;;;;;;;14.25;7.93;;;;;;;20.32;68.93;101261.22;5060509;28;20064;-80
2022/07/20 00:50:42;;;;;;;12.95;8.23;;;;;;;20.26;68.94;101263.19;5060217;28;20053;-80
2022/07/20 00:53:09;;;;;;;10.90;7.88;;;;;;;20.26;68.56;101257.78;5059781;28;20053;-80
2022/07/20 00:55:36;;;;;;;11.75;7.88;;;;;;;20.17;67.83;101260.75;5041623;28;20478;-80
2022/07/20 00:58:02;;;;;;;14.65;8.05;;;;;;;20.17;68.76;101264.19;5059546;28;20115;-80
2022/07/20 01:00:29;;;;;;;8.48;7.72;;;;;;;20.10;67.51;101253.13;5059964;28;20053;-80
2022/07/20 01:02:55;;;;;;;10.18;8.18;;;;;;;20.06;67.85;101258.78;5059748;28;20061;-80
2022/07/20 01:05:24;;;;;;;9.30;7.93;;;;;;;20.05;68.56;101259.28;5059660;28;20052;-80
2022/07/20 01:07:51;;;;;;;8.20;7.50;;;;;;;19.99;68.13;101260.00;5041674;28;20041;-80
2022/07/20 01:10:19;;;;;;;11.70;7.78;;;;;;;19.95;68.22;101256.84;5059735;28;20107;-80
2022/07/20 01:12:48;;;;;;;13.10;8.63;;;;;;;19.90;68.49;101263.00;5059017;28;20081;-80
2022/07/20 01:15:16;;;;;;;18.48;11.48;;;;;;;19.82;68.05;101267.41;5058746;28;20132;-80
2022/07/20 01:17:44;;;;;;;13.18;9.98;;;;;;;19.79;67.67;101268.38;5056901;28;20050;-80
2022/07/20 01:20:16;;;;;;;12.27;10.60;;;;;;;19.72;67.67;101276.22;5039982;28;20042;-80
2022/07/20 01:22:46;;;;;;;9.40;8.43;;;;;;;19.64;67.78;101281.38;5022153;28;20085;-81
2022/07/20 01:25:14;;;;;;;17.10;8.25;;;;;;;19.64;66.83;101265.16;5039840;28;20050;-80
2022/07/20 01:27:40;;;;;;;10.38;8.98;;;;;;;19.63;68.21;101274.50;5039035;28;20129;-79
2022/07/20 01:30:08;;;;;;;14.93;8.10;;;;;;;19.61;67.89;101271.53;5039408;28;20095;-81
2022/07/20 01:32:34;;;;;;;14.40;7.93;;;;;;;19.53;67.93;101271.31;5039765;28;20054;-80
2022/07/20 01:35:01;;;;;;;11.68;7.70;;;;;;;19.54;67.18;101274.75;5039456;28;20468;-80
2022/07/20 01:37:28;;;;;;;14.80;8.05;;;;;;;19.50;68.75;101276.91;5039599;28;20054;-80
2022/07/20 01:39:54;;;;;;;17.20;9.85;;;;;;;19.45;67.45;101280.34;5021860;28;20058;-80
2022/07/20 01:42:21;;;;;;;15.70;9.68;;;;;;;19.38;66.54;101265.34;5039505;28;20144;-80
2022/07/20 01:44:48;;;;;;;13.63;9.68;;;;;;;19.38;65.94;101273.47;5039362;28;20081;-80
2022/07/20 01:47:14;;;;;;;16.83;9.20;;;;;;;19.32;66.44;101267.31;5039459;28;20077;-80
2022/07/20 01:49:41;;;;;;;19.02;8.75;;;;;;;19.32;66.88;101259.19;5038795;28;20116;-80
2022/07/20 01:52:08;;;;;;;9.02;7.18;;;;;;;19.33;66.13;101277.63;5021512;28;20058;-81
2022/07/20 01:54:34;;;;;;;11.65;7.57;;;;;;;19.32;66.93;101270.75;5022167;28;20057;-81
2022/07/20 01:57:01;;;;;;;12.40;7.68;;;;;;;19.33;66.82;101274.91;5005869;28;20132;-81
2022/07/20 01:59:28;;;;;;;13.27;7.75;;;;;;;19.33;65.72;101264.13;5023318;28;20053;-81
2022/07/20 02:01:55;;;;;;;9.60;7.55;;;;;;;19.33;66.59;101268.78;5022679;28;20046;-80
2022/07/20 02:04:21;;;;;;;8.98;7.53;;;;;;;19.32;66.15;101262.66;5022010;28;20163;-81
2022/07/20 02:06:48;;;;;;;16.75;8.07;;;;;;;19.28;67.50;101261.41;5039898;28;20060;-81
2022/07/20 02:09:14;;;;;;;10.25;8.35;;;;;;;19.24;66.91;101261.63;5021784;28;20038;-81
2022/07/20 02:11:41;;;;;;;8.70;7.25;;;;;;;19.23;67.17;101248.63;5038792;28;20504;-80
2022/07/20 02:14:07;;;;;;;13.90;7.10;;;;;;;19.24;66.68;101250.84;5038931;28;20066;-79
2022/07/20 02:16:34;;;;;;;8.02;7.22;;;;;;;19.24;66.79;101242.00;5038168;28;20046;-81
2022/07/20 02:19:00;;;;;;;16.00;6.97;;;;;;;19.21;67.72;101248.38;5038957;28;20442;-81
2022/07/20 02:21:29;;;;;;;11.60;7.75;;;;;;;19.21;67.22;101248.38;5039579;28;20511;-81
2022/07/20 02:23:56;;;;;;;8.63;7.82;;;;;;;19.20;67.31;101255.72;5039150;28;20057;-81
2022/07/20 02:26:23;;;;;;;9.85;7.65;;;;;;;19.14;67.34;101246.91;5038515;28;20495;-81
2022/07/20 02:28:49;;;;;;;10.45;7.43;;;;;;;19.15;68.38;101253.03;5021379;28;20069;-81
2022/07/20 02:31:21;;;;;;;7.63;7.05;;;;;;;19.13;67.90;101250.84;5020489;28;20100;-80
2022/07/20 02:33:49;;;;;;;8.00;7.07;;;;;;;19.12;66.65;101254.75;5038663;28;20046;-81
2022/07/20 02:36:17;;;;;;;8.68;7.78;;;;;;;19.07;67.61;101252.03;5021388;28;20121;-81
2022/07/20 02:38:44;;;;;;;14.27;7.07;;;;;;;19.03;68.00;101263.06;5038186;28;20046;-79
2022/07/20 02:41:11;;;;;;;12.23;7.45;;;;;;;19.01;68.04;101264.75;5038920;28;20490;-80
2022/07/20 02:43:38;;;;;;;9.52;7.10;;;;;;;19.01;67.63;101272.84;5037748;28;20141;-81
2022/07/20 02:46:05;;;;;;;13.13;7.10;;;;;;;19.00;66.98;101269.41;5038360;28;20938;-81
2022/07/20 02:48:32;;;;;;;9.43;7.43;;;;;;;18.97;68.17;101279.22;5020741;28;20058;-80
2022/07/20 02:50:58;;;;;;;16.25;8.43;;;;;;;18.93;68.31;101267.19;5038507;28;20077;-81
2022/07/20 02:53:24;;;;;;;7.72;7.10;;;;;;;18.93;68.28;101270.63;5021370;28;20531;-80
2022/07/20 02:55:51;;;;;;;11.15;7.07;;;;;;;18.87;68.61;101279.91;5038265;28;20050;-81
2022/07/20 02:58:18;;;;;;;8.27;7.40;;;;;;;18.84;68.91;101278.16;5038438;28;20061;-81
2022/07/20 03:00:45;;;;;;;9.15;6.75;;;;;;;18.83;68.06;101282.81;5020609;28;20058;-81
2022/07/20 03:03:12;;;;;;;7.90;7.22;;;;;;;18.82;69.35;101267.88;5038473;28;20061;-81
2022/07/20 03:05:38;;;;;;;8.35;7.13;;;;;;;18.80;69.65;101275.69;5038533;28;20093;-80
2022/07/20 03:08:06;;;;;;;8.40;7.47;;;;;;;18.78;68.69;101274.72;5038236;28;20054;-81
2022/07/20 03:10:33;;;;;;;7.97;6.82;;;;;;;18.75;69.41;101279.13;5039020;28;20061;-81
2022/07/20 03:13:00;;;;;;;11.05;7.57;;;;;;;18.73;68.18;101278.88;5037946;28;20053;-80
2022/07/20 03:15:27;;;;;;;15.05;7.45;;;;;;;18.71;68.42;101289.41;5038539;28;20061;-81
2022/07/20 03:17:54;;;;;;;8.10;6.93;;;;;;;18.68;68.24;101295.75;5038684;28;20050;-81
2022/07/20 03:20:25;;;;;;;10.38;7.18;;;;;;;18.67;68.08;101288.16;5038173;28;20081;-81
2022/07/20 03:22:52;;;;;;;13.57;7.17;;;;;;;18.65;67.70;101294.75;5037904;28;20062;-81
2022/07/20 03:25:20;;;;;;;7.30;6.63;;;;;;;18.64;67.57;101279.81;5038087;28;20045;-81
2022/07/20 03:27:47;;;;;;;10.20;7.38;;;;;;;18.67;66.39;101285.47;5037956;28;20034;-81
2022/07/20 03:30:16;;;;;;;13.20;7.15;;;;;;;18.67;65.72;101286.19;5038177;28;20053;-81
2022/07/20 03:32:43;;;;;;;10.07;7.25;;;;;;;18.67;65.28;101294.28;5038254;28;20421;-80
2022/07/20 03:35:10;;;;;;;8.57;7.13;;;;;;;18.69;64.94;101309.97;5037978;28;20042;-80
2022/07/20 03:37:37;;;;;;;8.75;7.55;;;;;;;18.68;64.87;101303.84;5037602;28;20054;-81
2022/07/20 03:40:04;;;;;;;11.75;7.13;;;;;;;18.68;65.13;101305.81;5023501;28;20064;-81
2022/07/20 03:42:34;;;;;;;13.77;7.57;;;;;;;18.68;65.16;101308.50;5041583;28;20046;-81
2022/07/20 03:45:02;;;;;;;18.23;7.22;;;;;;;18.68;64.99;101314.63;5040982;28;20058;-81
2022/07/20 03:47:29;;;;;;;10.65;7.45;;;;;;;18.66;65.98;101311.69;5040778;28;20136;-81
2022/07/20 03:49:55;;;;;;;14.38;7.45;;;;;;;18.65;65.38;101307.50;5040830;28;20057;-79
2022/07/20 03:52:22;;;;;;;8.63;6.95;;;;;;;18.63;65.92;101313.38;5023662;28;20057;-80
2022/07/20 03:54:49;;;;;;;14.02;7.93;;;;;;;18.65;66.36;101323.69;5040921;28;20094;-80
2022/07/20 03:57:16;;;;;;;10.60;8.15;;;;;;;18.65;67.66;101324.44;5023604;28;20034;-81
2022/07/20 03:59:42;;;;;;;12.25;8.15;;;;;;;18.65;67.25;101331.78;5041253;28;20042;-80
2022/07/20 04:02:10;;;;;;;10.57;8.15;;;;;;;18.67;67.90;101347.47;5041107;28;20050;-81
2022/07/20 04:04:44;;;;;;;15.15;7.80;;;;;;;18.63;68.45;101350.41;5041268;28;20048;-81
2022/07/20 04:07:11;;;;;;;10.13;8.25;;;;;;;18.65;68.51;101346.00;5039991;28;20519;-81
2022/07/20 04:09:46;;;;;;;9.70;8.70;;;;;;;18.64;68.46;101346.47;5041037;28;20045;-81
2022/07/20 04:12:16;;;;;;;12.80;8.75;;;;;;;18.64;68.84;101344.53;5040564;28;20054;-81
2022/07/20 04:14:44;;;;;;;11.25;8.43;;;;;;;18.69;69.14;101342.34;5040959;28;20045;-81
2022/07/20 04:17:11;;;;;;;12.35;8.65;;;;;;;18.71;69.55;101346.03;5040846;28;20112;-81
2022/07/20 04:19:38;;;;;;;12.00;9.02;;;;;;;18.74;69.74;101363.97;5041426;28;20050;-81
2022/07/20 04:22:06;;;;;;;14.50;9.57;;;;;;;18.79;69.99;101363.25;5041123;28;20073;-81
2022/07/20 04:24:33;;;;;;;17.60;9.73;;;;;;;18.82;70.51;101375.00;5024029;28;20054;-81
2022/07/20 04:27:00;;;;;;;13.15;9.20;;;;;;;18.83;71.41;101385.31;5023753;28;20042;-81
2022/07/20 04:29:28;;;;;;;14.25;9.52;;;;;;;18.85;71.40;101399.06;5040567;28;20045;-81
2022/07/20 04:31:55;;;;;;;11.70;10.23;;;;;;;18.90;71.92;101398.38;5040737;28;20060;-80
2022/07/20 04:34:22;;;;;;;20.58;11.52;;;;;;;18.95;72.97;101389.56;5022901;28;20042;-79
2022/07/20 04:36:49;;;;;;;17.83;12.43;;;;;;;19.02;73.10;101391.09;5040300;28;20046;-80
2022/07/20 04:39:15;;;;;;;21.08;13.02;;;;;;;19.07;74.86;101395.78;5041086;28;20081;-80
2022/07/20 04:41:42;;;;;;;22.98;14.38;;;;;;;19.14;73.20;101395.31;5041392;28;20045;-81
2022/07/20 04:44:08;;;;;;;18.90;15.32;;;;;;;19.23;74.04;101408.59;5040943;28;20046;-81
2022/07/20 04:46:35;;;;;;;24.67;16.27;;;;;;;19.32;74.47;101411.09;5023800;28;20054;-80
2022/07/20 04:49:02;;;;;;;23.55;16.75;;;;;;;19.43;76.22;101425.88;5039794;28;20551;-80
2022/07/20 04:51:28;;;;;;;24.70;17.92;;;;;;;19.59;76.25;101417.84;5040382;28;20057;-81
2022/07/20 04:53:55;;;;;;;33.50;19.70;;;;;;;19.74;76.11;101414.97;5040109;28;20038;-80
2022/07/20 04:56:21;;;;;;;25.92;17.77;;;;;;;19.90;76.28;101425.09;5022834;28;20054;-80
2022/07/20 04:58:50;;;;;;;29.17;19.88;;;;;;;20.20;76.04;101424.66;5040416;28;20370;-80
2022/07/20 05:01:17;;;;;;;32.58;21.95;;;;;;;20.69;75.41;101417.06;5039964;28;20050;-81
2022/07/20 05:03:44;;;;;;;31.48;21.77;;;;;;;20.83;75.45;101432.28;5039330;28;20129;-80
2022/07/20 05:06:11;;;;;;;31.10;21.92;;;;;;;21.43;73.81;101433.41;5039260;28;20042;-78
2022/07/20 05:08:38;;;;;;;35.47;22.60;;;;;;;22.21;71.10;101434.97;5039644;28;20042;-70
2022/07/20 05:11:05;;;;;;;35.53;23.80;;;;;;;22.78;69.12;101433.28;5039284;28;20046;-81
2022/07/20 05:13:37;;;;;;;37.83;23.65;;;;;;;23.81;65.23;101436.56;5039353;28;20062;-76
2022/07/20 05:16:04;;;;;;;45.63;25.05;;;;;;;24.49;63.42;101436.28;5038470;28;20050;-75
2022/07/20 05:18:31;;;;;;;34.97;23.27;;;;;;;24.85;61.46;101436.66;5038431;28;20527;-76
2022/07/20 05:20:58;;;;;;;37.50;24.73;;;;;;;25.31;60.06;101448.19;5038564;28;20053;-78
2022/07/20 05:23:25;;;;;;;41.00;25.63;;;;;;;25.78;58.91;101440.78;5038262;28;20058;-76
2022/07/20 05:25:52;;;;;;;35.78;25.50;;;;;;;26.29;57.39;101447.81;5038497;28;20129;-76
2022/07/20 05:28:20;;;;;;;40.55;26.52;;;;;;;26.76;55.89;101453.09;5038569;28;20050;-77
2022/07/20 05:30:48;;;;;;;40.03;26.85;;;;;;;27.13;54.61;101458.09;5038228;28;20453;-76
2022/07/20 05:33:15;;;;;;;32.13;24.95;;;;;;;27.27;54.37;101458.69;5038369;28;20046;-78
2022/07/20 05:35:42;;;;;;;36.08;25.88;;;;;;;27.53;53.81;101452.25;5038410;28;20045;-76
2022/07/20 05:38:09;;;;;;;42.53;27.20;;;;;;;27.73;53.55;101435.00;5037906;28;20050;-76
2022/07/20 05:40:35;;;;;;;43.55;26.23;;;;;;;27.71;53.22;101445.00;5020876;28;20057;-76
2022/07/20 05:43:02;;;;;;;40.50;26.75;;;;;;;27.94;52.55;101448.53;5020404;28;20112;-76
2022/07/20 05:45:29;;;;;;;39.65;26.95;;;;;;;28.10;52.44;101450.00;5038267;28;20488;-77
2022/07/20 05:47:56;;;;;;;38.10;27.13;;;;;;;28.07;52.42;101451.09;5038097;28;20046;-82
2022/07/20 05:50:23;;;;;;;37.10;27.77;;;;;;;27.94;52.81;101456.00;5038534;28;20042;-78
2022/07/20 05:52:50;;;;;;;39.75;26.55;;;;;;;28.03;52.97;101466.41;5038396;28;20061;-78
2022/07/20 05:55:17;;;;;;;38.20;25.95;;;;;;;28.32;52.18;101458.81;5038178;28;20108;-75
2022/07/20 05:57:44;;;;;;;40.08;27.77;;;;;;;27.97;52.91;101474.81;5037790;28;20046;-78
2022/07/20 06:00:11;;;;;;;41.55;27.08;;;;;;;27.92;53.51;101474.97;5037429;28;20387;-77
2022/07/20 06:02:37;;;;;;;37.63;27.13;;;;;;;27.92;53.77;101483.91;5037442;28;20056;-75
2022/07/20 06:05:04;;;;;;;38.90;27.05;;;;;;;27.87;53.84;101485.53;5037473;28;20057;-77
2022/07/20 06:07:31;;;;;;;63.13;29.80;;;;;;;27.73;54.52;101497.91;5038025;28;20042;-76
2022/07/20 06:09:58;;;;;;;41.50;26.45;;;;;;;27.53;55.50;101507.66;5038308;28;20077;-76
2022/07/20 06:12:24;;;;;;;46.33;27.67;;;;;;;27.44;55.81;101501.94;5037502;28;20553;-76
2022/07/20 06:14:51;;;;;;;38.85;26.83;;;;;;;27.39;55.20;101513.78;5037599;28;20450;-76
2022/07/20 06:17:17;;;;;;;42.60;27.42;;;;;;;27.18;55.46;101517.31;5037713;28;20046;-76
2022/07/20 06:19:44;;;;;;;38.22;27.33;;;;;;;26.83;56.93;101529.59;5037186;28;20049;-75
2022/07/20 06:22:10;;;;;;;39.85;26.92;;;;;;;26.80;56.86;101532.66;5037300;28;20049;-76
2022/07/20 06:24:37;;;;;;;43.05;27.02;;;;;;;26.67;57.08;101533.50;5037683;28;20054;-77
2022/07/20 06:27:22;;;;;;;33.45;26.23;;;;;;;26.56;57.00;101545.41;5037655;28;20053;-76
2022/07/20 06:29:48;;;;;;;34.53;24.63;;;;;;;26.54;56.56;101556.13;5037625;28;20053;-79
2022/07/20 06:32:16;;;;;;;34.72;24.67;;;;;;;26.47;56.31;101551.34;5037426;28;20065;-78
2022/07/20 06:34:43;;;;;;;38.22;23.98;;;;;;;26.51;55.87;101557.19;5037752;28;20403;-78
2022/07/20 06:37:10;;;;;;;29.63;22.58;;;;;;;26.34;55.51;101562.31;5037729;28;20054;-78
2022/07/20 06:39:37;;;;;;;37.63;23.65;;;;;;;26.48;56.06;101560.25;5037370;28;20042;-78
2022/07/20 06:42:12;;;;;;;34.85;24.25;;;;;;;26.65;55.45;101577.00;5037662;28;20054;-77
2022/07/20 06:44:39;;;;;;;30.90;23.67;;;;;;;26.71;55.57;101574.13;5037416;28;20046;-77
2022/07/20 06:47:05;;;;;;;31.92;24.13;;;;;;;26.59;54.62;101579.13;5037614;28;20060;-78
2022/07/20 06:49:41;;;;;;;35.38;21.85;;;;;;;26.32;53.91;101588.69;5037680;28;20065;-81
2022/07/20 06:52:08;;;;;;;27.33;21.20;;;;;;;26.08;54.12;101586.91;5020861;28;20053;-82
2022/07/20 06:54:35;;;;;;;26.42;21.88;;;;;;;26.00;54.38;101586.09;5041947;28;20133;-83
2022/07/20 06:57:03;;;;;;;31.60;20.95;;;;;;;25.98;54.62;101586.66;5036507;28;20053;-80
2022/07/20 06:59:40;;;;;;;29.50;21.20;;;;;;;25.99;54.45;101601.75;5041806;28;20038;-79
2022/07/20 07:02:10;;;;;;;25.33;20.25;;;;;;;25.96;55.01;101597.34;5030610;28;20045;-81
